createdAt,value
2023-01-28T00:02:23.757Z,36.90
2023-01-28T00:04:58.031Z,35.70
2023-01-28T00:07:31.558Z,34.80
2023-01-28T00:10:05.516Z,36.60
2023-01-28T00:12:46.999Z,34.40
2023-01-28T00:15:20.839Z,37.00
2023-01-28T00:17:56.387Z,34.10
2023-01-28T00:20:30.075Z,33.70
2023-01-28T00:23:07.660Z,34.60
2023-01-28T00:25:41.777Z,34.40
2023-01-28T00:28:15.465Z,33.50
2023-01-28T00:30:49.549Z,34.40
2023-01-28T00:33:23.492Z,33.20
2023-01-28T00:36:03.560Z,35.20
2023-01-28T00:38:37.811Z,33.40
2023-01-28T00:41:16.401Z,36.20
2023-01-28T00:43:51.007Z,35.20
2023-01-28T00:46:26.882Z,35.10
2023-01-28T00:49:02.129Z,33.80
2023-01-28T00:51:36.108Z,36.10
2023-01-28T00:54:10.686Z,36.20
2023-01-28T00:56:44.630Z,37.60
2023-01-28T00:59:18.298Z,37.40
2023-01-28T01:01:52.636Z,36.20
2023-01-28T01:04:35.815Z,36.70
2023-01-28T01:07:10.236Z,34.70
2023-01-28T01:09:47.139Z,32.50
2023-01-28T01:12:21.465Z,34.80
2023-01-28T01:14:55.248Z,34.90
2023-01-28T01:17:31.359Z,32.50
2023-01-28T01:20:05.394Z,33.30
2023-01-28T01:22:40.448Z,34.30
2023-01-28T01:25:17.162Z,32.60
2023-01-28T01:27:52.255Z,33.50
2023-01-28T01:30:26.340Z,37.00
2023-01-28T01:33:00.103Z,40.00
2023-01-28T01:35:33.417Z,36.10
2023-01-28T01:38:07.503Z,37.10
2023-01-28T01:40:41.382Z,36.20
2023-01-28T01:43:21.506Z,34.40
2023-01-28T01:46:00.369Z,35.00
2023-01-28T01:48:37.591Z,35.40
2023-01-28T01:51:14.594Z,35.70
2023-01-28T01:53:51.255Z,32.10
2023-01-28T01:56:30.305Z,29.90
2023-01-28T01:59:05.635Z,33.10
2023-01-28T02:01:39.770Z,32.10
2023-01-28T02:04:21.404Z,32.20
2023-01-28T02:06:55.652Z,34.20
2023-01-28T02:09:31.649Z,31.30
2023-01-28T02:12:10.963Z,34.40
2023-01-28T02:14:50.175Z,30.20
2023-01-28T02:17:24.423Z,36.10
2023-01-28T02:20:00.741Z,32.30
2023-01-28T02:22:55.255Z,35.30
2023-01-28T02:25:43.328Z,40.20
2023-01-28T02:28:29.361Z,34.30
2023-01-28T02:31:11.868Z,32.20
2023-01-28T02:33:54.665Z,31.20
2023-01-28T02:36:36.374Z,29.70
2023-01-28T02:39:15.610Z,32.80
2023-01-28T02:41:54.757Z,30.80
2023-01-28T02:44:28.434Z,32.30
2023-01-28T02:47:19.867Z,29.70
2023-01-28T02:49:56.750Z,31.50
2023-01-28T02:52:56.285Z,29.10
2023-01-28T02:55:37.339Z,27.30
2023-01-28T02:58:20.119Z,30.80
2023-01-28T03:01:06.836Z,28.50
2023-01-28T03:03:50.651Z,30.50
2023-01-28T03:06:28.609Z,25.90
2023-01-28T03:09:21.775Z,27.00
2023-01-28T03:12:16.693Z,30.50
2023-01-28T03:15:12.019Z,27.10
2023-01-28T03:18:09.195Z,30.20
2023-01-28T03:21:07.986Z,27.80
2023-01-28T03:24:07.272Z,24.20
2023-01-28T03:27:07.777Z,28.90
2023-01-28T03:30:01.328Z,26.20
2023-01-28T03:32:56.537Z,26.50
2023-01-28T03:35:53.346Z,25.90
2023-01-28T03:38:34.631Z,24.90
2023-01-28T03:41:08.526Z,24.40
2023-01-28T03:43:44.004Z,23.80
2023-01-28T03:46:18.844Z,23.60
2023-01-28T03:48:52.588Z,26.60
2023-01-28T03:51:26.724Z,25.40
2023-01-28T03:54:00.664Z,25.70
2023-01-28T03:56:38.221Z,24.60
2023-01-28T03:59:12.442Z,23.90
2023-01-28T04:01:46.060Z,22.60
2023-01-28T04:04:24.149Z,22.00
2023-01-28T04:06:59.015Z,25.30
2023-01-28T04:09:32.952Z,28.10
2023-01-28T04:12:33.014Z,26.20
2023-01-28T04:15:16.856Z,24.80
2023-01-28T04:17:53.002Z,22.50
2023-01-28T04:20:31.957Z,25.20
2023-01-28T04:23:08.154Z,25.00
2023-01-28T04:25:42.160Z,24.20
2023-01-28T04:28:16.271Z,26.50
2023-01-28T04:30:49.774Z,25.10
2023-01-28T04:33:40.259Z,22.10
2023-01-28T04:36:49.714Z,23.90
2023-01-28T04:39:43.124Z,23.50
2023-01-28T04:42:37.262Z,23.50
2023-01-28T04:45:31.391Z,21.70
2023-01-28T04:48:15.053Z,24.60
2023-01-28T04:50:58.276Z,23.70
2023-01-28T04:53:55.057Z,27.70
2023-01-28T04:56:38.723Z,25.40
2023-01-28T04:59:12.756Z,23.40
2023-01-28T05:01:46.581Z,23.60
2023-01-28T05:04:21.080Z,26.50
2023-01-28T05:06:54.842Z,24.20
2023-01-28T05:09:35.829Z,22.20
2023-01-28T05:12:09.935Z,21.90
2023-01-28T05:14:45.369Z,23.50
2023-01-28T05:17:24.596Z,20.70
2023-01-28T05:19:59.077Z,23.30
2023-01-28T05:22:35.236Z,21.50
2023-01-28T05:25:30.364Z,21.90
2023-01-28T05:28:04.697Z,22.50
2023-01-28T05:30:39.349Z,23.10
2023-01-28T05:33:13.392Z,21.40
2023-01-28T05:35:47.784Z,22.30
2023-01-28T05:38:21.811Z,23.90
2023-01-28T05:40:55.436Z,23.00
2023-01-28T05:43:29.301Z,21.90
2023-01-28T05:46:25.461Z,20.50
2023-01-28T05:49:22.740Z,22.70
2023-01-28T05:52:35.320Z,21.60
2023-01-28T05:55:11.276Z,21.60
2023-01-28T05:57:46.151Z,22.40
2023-01-28T06:00:23.385Z,23.30
2023-01-28T06:02:57.537Z,21.90
2023-01-28T06:05:31.859Z,25.40
2023-01-28T06:08:09.150Z,26.10
2023-01-28T06:10:43.961Z,26.40
2023-01-28T06:13:17.783Z,32.10
2023-01-28T06:15:53.838Z,29.10
2023-01-28T06:18:45.939Z,29.70
2023-01-28T06:21:19.395Z,34.40
2023-01-28T06:23:53.174Z,33.70
2023-01-28T06:26:27.124Z,30.30
2023-01-28T06:29:00.808Z,76.50
2023-01-28T06:31:34.585Z,73.70
2023-01-28T06:34:08.284Z,52.20
2023-01-28T06:36:42.008Z,38.10
2023-01-28T06:39:15.928Z,28.10
2023-01-28T06:41:50.202Z,28.40
2023-01-28T06:44:24.498Z,28.70
2023-01-28T06:46:58.264Z,37.60
2023-01-28T06:49:32.041Z,27.20
2023-01-28T06:52:06.308Z,25.50
2023-01-28T06:54:39.979Z,26.10
2023-01-28T06:57:13.529Z,27.50
2023-01-28T06:59:47.295Z,25.70
2023-01-28T07:02:21.097Z,23.80
2023-01-28T07:04:55.043Z,26.70
2023-01-28T07:07:29.196Z,26.00
2023-01-28T07:10:03.069Z,22.30
2023-01-28T07:12:37.468Z,24.90
2023-01-28T07:15:13.151Z,26.80
2023-01-28T07:17:47.511Z,23.50
2023-01-28T07:20:22.641Z,31.70
2023-01-28T07:22:56.722Z,23.90
2023-01-28T07:25:31.996Z,24.50
2023-01-28T07:28:06.421Z,25.40
2023-01-28T07:30:40.564Z,25.00
2023-01-28T07:33:14.876Z,20.70
2023-01-28T07:35:49.836Z,20.80
2023-01-28T07:38:23.762Z,20.30
2023-01-28T07:41:00.095Z,20.60
2023-01-28T07:43:33.747Z,21.90
2023-01-28T07:46:08.496Z,18.50
2023-01-28T07:48:42.341Z,18.10
2023-01-28T07:51:16.401Z,17.70
2023-01-28T07:53:50.575Z,19.30
2023-01-28T07:56:24.271Z,17.00
2023-01-28T07:58:58.316Z,21.80
2023-01-28T08:01:32.609Z,18.90
2023-01-28T08:04:07.363Z,18.40
2023-01-28T08:06:41.170Z,21.60
2023-01-28T08:09:15.378Z,19.70
2023-01-28T08:11:58.882Z,18.80
2023-01-28T08:14:32.931Z,18.10
2023-01-28T08:17:07.047Z,18.90
2023-01-28T08:19:41.066Z,18.30
2023-01-28T08:22:15.072Z,19.20
2023-01-28T08:24:48.996Z,18.40
2023-01-28T08:27:22.932Z,18.70
2023-01-28T08:29:56.399Z,18.30
2023-01-28T08:32:30.680Z,18.40
2023-01-28T08:35:06.003Z,17.50
2023-01-28T08:37:40.250Z,18.70
2023-01-28T08:40:15.860Z,17.20
2023-01-28T08:42:53.202Z,18.00
2023-01-28T08:45:32.362Z,17.50
2023-01-28T08:48:20.395Z,20.30
2023-01-28T08:51:00.205Z,17.60
2023-01-28T08:53:34.255Z,16.90
2023-01-28T08:56:09.544Z,17.50
2023-01-28T08:58:43.368Z,16.40
2023-01-28T09:01:17.243Z,17.30
2023-01-28T09:03:51.092Z,16.60
2023-01-28T09:06:25.349Z,17.50
2023-01-28T09:09:00.715Z,16.10
2023-01-28T09:11:34.654Z,20.10
2023-01-28T09:14:08.973Z,19.00
2023-01-28T09:16:42.913Z,16.40
2023-01-28T09:19:17.168Z,19.20
2023-01-28T09:21:50.990Z,17.60
2023-01-28T09:24:24.841Z,15.90
2023-01-28T09:26:58.801Z,21.70
2023-01-28T09:29:32.435Z,21.40
2023-01-28T09:32:07.452Z,18.30
2023-01-28T09:34:41.363Z,18.30
2023-01-28T09:37:15.402Z,33.60
2023-01-28T09:39:49.613Z,33.00
2023-01-28T09:42:49.743Z,19.70
2023-01-28T09:45:30.756Z,18.40
2023-01-28T09:48:07.330Z,17.80
2023-01-28T09:50:43.959Z,18.60
2023-01-28T09:53:28.183Z,17.00
2023-01-28T09:56:06.505Z,18.70
2023-01-28T09:58:40.584Z,18.70
2023-01-28T10:01:38.779Z,19.10
2023-01-28T10:04:28.103Z,17.80
2023-01-28T10:07:16.766Z,17.20
2023-01-28T10:12:41.537Z,17.60
2023-01-28T10:15:43.634Z,19.10
2023-01-28T10:18:18.587Z,20.50
2023-01-28T10:20:56.936Z,19.80
2023-01-28T10:23:41.541Z,17.40
2023-01-28T10:26:25.853Z,16.90
2023-01-28T10:29:05.365Z,16.80
2023-01-28T10:31:44.277Z,16.60
2023-01-28T10:34:20.070Z,15.00
2023-01-28T10:36:56.004Z,14.50
2023-01-28T10:39:30.333Z,16.90
2023-01-28T10:42:04.863Z,16.50
2023-01-28T10:44:42.730Z,17.90
2023-01-28T10:47:22.773Z,16.50
2023-01-28T10:50:01.339Z,19.00
2023-01-28T10:52:35.166Z,15.60
2023-01-28T10:55:16.745Z,16.40
2023-01-28T10:57:51.111Z,16.40
2023-01-28T11:00:32.301Z,18.80
2023-01-28T11:03:06.675Z,17.50
2023-01-28T11:05:40.707Z,16.00
2023-01-28T11:08:17.628Z,15.00
2023-01-28T11:10:52.485Z,16.40
2023-01-28T11:13:28.056Z,15.20
2023-01-28T11:16:06.116Z,16.40
2023-01-28T11:18:49.374Z,17.40
2023-01-28T11:21:27.354Z,16.20
2023-01-28T11:24:04.297Z,18.30
2023-01-28T11:26:42.144Z,18.10
2023-01-28T11:29:27.351Z,22.70
2023-01-28T11:32:02.500Z,23.50
2023-01-28T11:34:38.037Z,19.90
2023-01-28T11:37:17.099Z,18.00
2023-01-28T11:39:50.977Z,18.00
2023-01-28T11:42:25.982Z,19.10
2023-01-28T11:44:59.715Z,19.90
2023-01-28T11:47:50.723Z,19.10
2023-01-28T11:50:33.878Z,19.70
2023-01-28T11:53:27.773Z,18.50
2023-01-28T11:56:24.244Z,17.80
2023-01-28T11:59:07.883Z,17.80
2023-01-28T12:01:49.679Z,18.60
2023-01-28T12:04:31.026Z,17.50
2023-01-28T12:07:18.934Z,18.20
2023-01-28T12:10:00.232Z,19.90
2023-01-28T12:13:01.379Z,19.10
2023-01-28T12:16:01.964Z,21.40
2023-01-28T12:18:52.093Z,19.70
2023-01-28T12:21:37.902Z,20.10
2023-01-28T12:24:26.161Z,20.50
2023-01-28T12:27:09.354Z,18.30
2023-01-28T12:29:56.161Z,20.20
2023-01-28T12:32:47.214Z,19.40
2023-01-28T12:35:51.507Z,22.50
2023-01-28T12:38:35.973Z,28.20
2023-01-28T12:41:14.124Z,23.00
2023-01-28T12:44:07.214Z,22.60
2023-01-28T12:46:47.617Z,31.40
2023-01-28T12:49:27.400Z,29.90
2023-01-28T12:52:11.790Z,28.30
2023-01-28T12:54:55.700Z,28.80
2023-01-28T12:57:31.852Z,31.70
2023-01-28T13:00:25.007Z,26.50
2023-01-28T13:03:08.017Z,28.40
2023-01-28T13:05:48.103Z,30.90
2023-01-28T13:08:31.343Z,29.80
2023-01-28T13:11:08.391Z,24.60
2023-01-28T13:13:44.034Z,25.60
2023-01-28T13:16:19.428Z,24.20
2023-01-28T13:18:55.199Z,22.30
2023-01-28T13:21:48.697Z,32.70
2023-01-28T13:24:33.686Z,22.30
2023-01-28T13:27:25.277Z,23.10
2023-01-28T13:30:26.661Z,19.80
2023-01-28T13:33:03.188Z,22.80
2023-01-28T13:35:39.837Z,20.90
2023-01-28T13:38:20.918Z,21.00
2023-01-28T13:41:01.560Z,24.00
2023-01-28T13:43:42.500Z,24.40
2023-01-28T13:46:29.201Z,21.90
2023-01-28T13:49:03.630Z,24.20
2023-01-28T13:51:40.838Z,34.70
2023-01-28T13:54:20.791Z,86.50
2023-01-28T13:57:11.478Z,56.20
2023-01-28T13:59:57.119Z,58.80
2023-01-28T14:02:55.020Z,31.80
2023-01-28T14:05:59.581Z,50.20
2023-01-28T14:09:05.019Z,30.30
2023-01-28T14:12:04.434Z,27.60
2023-01-28T14:15:07.532Z,22.60
2023-01-28T14:17:47.344Z,21.00
2023-01-28T14:20:26.467Z,22.00
2023-01-28T14:23:04.230Z,23.70
2023-01-28T14:25:56.508Z,21.60
2023-01-28T14:28:42.347Z,18.20
2023-01-28T14:31:24.345Z,16.80
2023-01-28T14:34:00.344Z,17.60
2023-01-28T14:36:37.739Z,17.00
2023-01-28T14:39:19.893Z,17.60
2023-01-28T14:41:57.075Z,16.30
2023-01-28T14:44:37.434Z,15.60
2023-01-28T14:47:33.340Z,17.30
2023-01-28T14:50:35.936Z,16.90
2023-01-28T14:53:32.956Z,16.40
2023-01-28T14:56:17.267Z,22.50
2023-01-28T14:58:55.102Z,20.40
2023-01-28T15:01:30.494Z,20.20
2023-01-28T15:04:04.943Z,17.40
2023-01-28T15:06:39.909Z,16.70
2023-01-28T15:09:16.715Z,17.40
2023-01-28T15:11:54.173Z,18.50
2023-01-28T15:14:32.068Z,31.90
2023-01-28T15:17:06.044Z,28.00
2023-01-28T15:19:41.992Z,25.40
2023-01-28T15:22:19.677Z,17.20
2023-01-28T15:24:53.712Z,18.90
2023-01-28T15:27:31.306Z,19.30
2023-01-28T15:30:06.028Z,19.10
2023-01-28T15:32:39.515Z,16.30
2023-01-28T15:35:16.673Z,28.20
2023-01-28T15:37:51.004Z,20.10
2023-01-28T15:40:27.439Z,21.90
2023-01-28T15:43:01.932Z,17.30
2023-01-28T15:45:36.134Z,10.60
2023-01-28T15:48:10.938Z,8.20
2023-01-28T15:51:02.428Z,6.80
2023-01-28T15:53:39.258Z,9.20
2023-01-28T15:56:16.674Z,9.30
2023-01-28T15:58:50.617Z,11.00
2023-01-28T16:01:26.179Z,10.20
2023-01-28T16:04:09.997Z,12.70
2023-01-28T16:06:47.193Z,13.30
2023-01-28T16:09:28.786Z,13.20
2023-01-28T16:12:08.910Z,16.10
2023-01-28T16:14:47.269Z,17.60
2023-01-28T16:17:27.108Z,22.40
2023-01-28T16:20:25.089Z,19.40
2023-01-28T16:23:04.663Z,14.90
2023-01-28T16:25:49.408Z,17.50
2023-01-28T16:28:24.586Z,21.60
2023-01-28T16:31:01.530Z,20.10
2023-01-28T16:33:36.123Z,18.10
2023-01-28T16:36:14.586Z,20.50
2023-01-28T16:38:48.852Z,22.10
2023-01-28T16:41:30.411Z,20.00
2023-01-28T16:44:06.702Z,18.90
2023-01-28T16:46:42.861Z,20.70
2023-01-28T16:49:17.386Z,19.30
2023-01-28T16:52:02.335Z,21.50
2023-01-28T16:54:38.792Z,20.90
2023-01-28T16:57:18.749Z,19.20
2023-01-28T16:59:53.224Z,23.60
2023-01-28T17:02:28.734Z,21.10
2023-01-28T17:05:03.513Z,19.90
2023-01-28T17:07:38.600Z,18.30
2023-01-28T17:10:15.127Z,14.40
2023-01-28T17:12:51.136Z,14.20
2023-01-28T17:15:26.384Z,16.10
2023-01-28T17:18:02.801Z,14.70
2023-01-28T17:20:40.718Z,15.60
2023-01-28T17:23:24.022Z,14.20
2023-01-28T17:25:58.964Z,15.60
2023-01-28T17:28:32.888Z,16.50
2023-01-28T17:31:13.038Z,16.90
2023-01-28T17:33:55.834Z,16.50
2023-01-28T17:36:32.564Z,17.90
2023-01-28T17:39:08.309Z,18.50
2023-01-28T17:41:43.358Z,17.90
2023-01-28T17:44:20.157Z,18.20
2023-01-28T17:46:56.258Z,19.30
2023-01-28T17:49:33.551Z,20.40
2023-01-28T17:52:09.233Z,18.40
2023-01-28T17:54:44.334Z,15.00
2023-01-28T17:57:23.884Z,14.00
2023-01-28T18:00:04.140Z,15.60
2023-01-28T18:02:51.156Z,14.70
2023-01-28T18:05:29.413Z,16.30
2023-01-28T18:08:05.015Z,17.50
2023-01-28T18:10:41.181Z,16.30
2023-01-28T18:13:16.358Z,13.60
2023-01-28T18:15:50.996Z,7.90
2023-01-28T18:18:28.647Z,10.30
2023-01-28T18:21:04.700Z,11.10
2023-01-28T18:23:42.440Z,14.10
2023-01-28T18:26:18.265Z,14.10
2023-01-28T18:28:53.491Z,16.70
2023-01-28T18:31:31.298Z,17.90
2023-01-28T18:34:06.469Z,15.80
2023-01-28T18:36:45.397Z,17.50
2023-01-28T18:41:54.854Z,17.60
2023-01-28T18:44:31.869Z,18.80
2023-01-28T18:47:07.833Z,20.50
2023-01-28T18:49:45.987Z,18.30
2023-01-28T18:52:24.021Z,16.00
2023-01-28T18:55:02.974Z,15.50
2023-01-28T18:57:39.469Z,16.20
2023-01-28T19:00:17.295Z,15.90
2023-01-28T19:02:53.474Z,16.30
2023-01-28T19:05:29.159Z,16.10
2023-01-28T19:08:04.229Z,13.50
2023-01-28T19:10:40.066Z,11.40
2023-01-28T19:13:15.854Z,11.70
2023-01-28T19:15:53.315Z,10.50
2023-01-28T19:18:30.262Z,10.80
2023-01-28T19:21:12.859Z,10.30
2023-01-28T19:23:50.531Z,9.40
2023-01-28T19:26:28.628Z,9.50
2023-01-28T19:29:04.259Z,11.90
2023-01-28T19:31:40.855Z,11.40
2023-01-28T19:34:17.915Z,12.50
2023-01-28T19:36:56.589Z,12.40
2023-01-28T19:39:32.706Z,11.70
2023-01-28T19:42:09.076Z,10.60
2023-01-28T19:44:43.969Z,10.80
2023-01-28T19:47:20.295Z,11.60
2023-01-28T19:49:55.717Z,11.00
2023-01-28T19:52:29.861Z,12.00
2023-01-28T19:55:08.543Z,12.30
2023-01-28T19:57:45.214Z,14.50
2023-01-28T20:00:23.505Z,12.80
2023-01-28T20:03:00.267Z,11.40
2023-01-28T20:05:36.718Z,12.00
2023-01-28T20:08:12.889Z,11.30
2023-01-28T20:10:49.633Z,11.20
2023-01-28T20:13:25.750Z,11.60
2023-01-28T20:16:01.040Z,10.70
2023-01-28T20:18:35.515Z,10.40
2023-01-28T20:21:11.928Z,10.20
2023-01-28T20:23:48.928Z,12.10
2023-01-28T20:26:26.349Z,13.10
2023-01-28T20:29:15.178Z,12.20
2023-01-28T20:32:05.372Z,12.00
2023-01-28T20:34:46.659Z,12.10
2023-01-28T20:37:23.191Z,11.20
2023-01-28T20:40:01.654Z,13.50
2023-01-28T20:42:38.502Z,13.20
2023-01-28T20:47:52.000Z,14.10
2023-01-28T20:50:27.495Z,12.60
2023-01-28T20:53:03.548Z,12.10
2023-01-28T20:55:42.317Z,12.60
2023-01-28T20:58:17.934Z,11.60
2023-01-28T21:00:55.106Z,12.90
2023-01-28T21:03:31.992Z,11.70
2023-01-28T21:06:07.960Z,13.20
2023-01-28T21:08:43.223Z,12.30
2023-01-28T21:11:24.359Z,13.10
2023-01-28T21:14:00.025Z,12.90
2023-01-28T21:16:34.994Z,13.10
2023-01-28T21:19:09.822Z,13.40
2023-01-28T21:21:46.187Z,13.50
2023-01-28T21:24:22.537Z,12.70
2023-01-28T21:26:57.787Z,11.00
2023-01-28T21:29:32.191Z,11.40
2023-01-28T21:32:07.000Z,13.40
2023-01-28T21:34:42.832Z,14.70
2023-01-28T21:37:22.678Z,15.20
2023-01-28T21:39:56.859Z,12.70
2023-01-28T21:42:32.635Z,12.00
2023-01-28T21:45:09.001Z,12.90
2023-01-28T21:47:43.078Z,12.60
2023-01-28T21:50:18.425Z,11.50
2023-01-28T21:52:54.336Z,13.10
2023-01-28T21:55:28.788Z,13.40
2023-01-28T21:58:24.207Z,12.50
2023-01-28T22:00:58.283Z,13.20
2023-01-28T22:03:35.204Z,13.80
2023-01-28T22:06:10.063Z,13.60
2023-01-28T22:08:44.007Z,12.60
2023-01-28T22:11:17.990Z,10.90
2023-01-28T22:13:51.857Z,14.70
2023-01-28T22:16:25.457Z,14.90
2023-01-28T22:18:59.054Z,13.10
2023-01-28T22:21:33.282Z,14.20
2023-01-28T22:24:07.866Z,12.80
2023-01-28T22:26:42.169Z,11.60
2023-01-28T22:29:17.647Z,12.10
2023-01-28T22:31:52.689Z,13.10
2023-01-28T22:34:27.925Z,13.30
2023-01-28T22:37:01.696Z,13.70
2023-01-28T22:39:35.344Z,12.90
2023-01-28T22:42:09.172Z,13.30
2023-01-28T22:44:42.611Z,12.90
2023-01-28T22:47:16.877Z,13.70
2023-01-28T22:49:50.819Z,12.30
2023-01-28T22:52:24.464Z,13.90
2023-01-28T22:54:58.359Z,12.30
2023-01-28T22:57:32.199Z,12.90
2023-01-28T23:00:08.809Z,12.90
2023-01-28T23:02:42.580Z,12.10
2023-01-28T23:05:16.501Z,13.60
2023-01-28T23:07:50.404Z,14.70
2023-01-28T23:10:24.236Z,14.80
2023-01-28T23:12:57.849Z,14.50
2023-01-28T23:15:49.261Z,17.40
2023-01-28T23:18:42.444Z,14.10
2023-01-28T23:21:39.327Z,11.90
2023-01-28T23:24:23.070Z,12.40
2023-01-28T23:26:58.809Z,14.80
2023-01-28T23:29:33.200Z,12.50
2023-01-28T23:32:16.193Z,12.70
2023-01-28T23:34:49.754Z,15.40
2023-01-28T23:37:23.609Z,14.50
2023-01-28T23:40:00.624Z,13.40
2023-01-28T23:42:34.639Z,12.20
2023-01-28T23:45:10.930Z,14.20
2023-01-28T23:47:44.900Z,12.60
2023-01-28T23:50:19.489Z,12.80
2023-01-28T23:53:02.653Z,12.40
2023-01-28T23:55:40.029Z,12.60
2023-01-28T23:58:13.981Z,13.40
